Flight Track Log - Related Links

Times and Time Zones

All times are in EDT time to prevent confusion due to time zone crossing. See the JZA8279 flight status page for this flight to view local times or setup timezone preferences in your user account.

Time Position Orientation Groundspeed Altitude Reporting Facility
EDT Latitude Longitude Course Direction KTS MPH feet Rate Location/Type
Wed 02:07:06 PM 54.2333 -130.4500 135° Southeast 100 115 2,600  Level Vancouver Center
Wed 02:08:06 PM 54.2167 -130.4500 180° South 100 115 4,000 1,450 Climbing Vancouver Center
Wed 02:09:06 PM 54.1833 -130.3833 130° Southeast 130 150 5,500 1,500 Climbing Vancouver Center
Wed 02:10:06 PM 54.1500 -130.3333 139° Southeast 160 184 7,000 1,450 Climbing Vancouver Center
Wed 02:11:06 PM 54.1333 -130.3000 130° Southeast 160 184 8,400 1,300 Climbing Vancouver Center
Wed 02:12:00 PM 53.9104 -129.8175 135° Southeast  Level FlightAware Approximate
Wed 02:12:06 PM 54.1000 -130.2333 130° Southeast 180 207 9,600  Level Vancouver Center
Wed 02:13:06 PM 54.0500 -130.1333 130° Southeast 210 242 10,900 1,400 Climbing Vancouver Center
Wed 02:14:06 PM 54.0000 -130.0833 150° Southeast 210 242 12,400 1,450 Climbing Vancouver Center
Wed 02:15:06 PM 53.9667 -130.0167 130° Southeast 210 242 13,800 1,100 Climbing Vancouver Center
Wed 02:16:06 PM 53.9333 -129.9167 119° Southeast 210 242 14,600 850 Climbing Vancouver Center
Wed 02:17:06 PM 53.8833 -129.8667 149° Southeast 230 265 15,500 900 Climbing Vancouver Center
Wed 02:18:06 PM 53.8333 -129.7667 130° Southeast 230 265 16,400 900 Climbing Vancouver Center
Wed 02:19:06 PM 53.7833 -129.7000 142° Southeast 240 276 17,300 750 Climbing Vancouver Center
Wed 02:20:06 PM 53.7333 -129.6167 135° Southeast 240 276 17,900 700 Climbing Vancouver Center
Wed 02:21:06 PM 53.7000 -129.5500 130° Southeast 240 276 18,700 800 Climbing Vancouver Center
Wed 02:22:06 PM 53.6500 -129.4667 135° Southeast 250 288 19,500 750 Climbing Vancouver Center
Wed 02:23:06 PM 53.6000 -129.3667 130° Southeast 250 288 20,200 750 Climbing Vancouver Center
Wed 02:24:06 PM 53.5500 -129.3000 142° Southeast 260 299 21,000 800 Climbing Vancouver Center
Wed 02:25:06 PM 53.5000 -129.2167 135° Southeast 260 299 21,800 750 Climbing Vancouver Center
Wed 02:26:06 PM 53.4500 -129.1167 130° Southeast 260 299 22,500 600 Climbing Vancouver Center
Wed 02:27:06 PM 53.4000 -129.0333 135° Southeast 250 288 23,000 250 Climbing Vancouver Center
Wed 02:28:06 PM 53.3333 -128.9500 143° Southeast 270 311 23,000  Level Vancouver Center
Wed 02:29:06 PM 53.2833 -128.8500 130° Southeast 290 334 23,000  Level Vancouver Center
Wed 02:30:06 PM 53.2333 -128.7667 135° Southeast 300 345 23,000  Level Vancouver Center
Wed 02:31:06 PM 53.1667 -128.6500 134° Southeast 300 345 23,000  Level Vancouver Center
Wed 02:32:06 PM 53.1000 -128.5500 138° Southeast 310 357 23,000  Level Vancouver Center
Wed 02:33:06 PM 53.0333 -128.4667 143° Southeast 310 357 23,000  Level Vancouver Center
Wed 02:34:06 PM 53.0000 -128.3667 119° Southeast 300 345 23,000  Level Vancouver Center
Wed 02:35:06 PM 52.9167 -128.2500 140° Southeast 320 368 23,000  Level Vancouver Center
Wed 02:36:06 PM 52.8500 -128.1667 143° Southeast 310 357 23,000  Level Vancouver Center
Wed 02:37:06 PM 52.8000 -128.0500 125° Southeast 310 357 23,000  Level Vancouver Center
Wed 02:38:06 PM 52.7167 -127.9667 149° Southeast 310 357 23,000  Level Vancouver Center
Wed 02:39:06 PM 52.6833 -127.8667 119° Southeast 310 357 23,000  Level Vancouver Center
Wed 02:40:06 PM 52.6000 -127.7500 140° Southeast 310 357 23,000  Level Vancouver Center
Wed 02:41:06 PM 52.5500 -127.6667 135° Southeast 320 368 23,000  Level Vancouver Center
Wed 02:42:06 PM 52.4667 -127.5500 140° Southeast 320 368 23,000  Level Vancouver Center
Wed 02:43:06 PM 52.4000 -127.4667 143° Southeast 320 368 23,000  Level Vancouver Center
Wed 02:44:06 PM 52.3333 -127.3500 133° Southeast 320 368 23,000  Level Vancouver Center
Wed 02:45:06 PM 52.2833 -127.2667 134° Southeast 320 368 23,000  Level Vancouver Center
Wed 02:46:06 PM 52.2167 -127.1833 143° Southeast 320 368 23,000  Level Vancouver Center
Wed 02:47:06 PM 52.1333 -127.1167 154° Southeast 300 345 23,000  Level Vancouver Center
Wed 02:48:06 PM 52.0667 -127.0833 163° South 300 345 23,000  Level Vancouver Center
Wed 02:49:06 PM 51.9833 -127.0500 166° South 300 345 23,000  Level Vancouver Center
Wed 02:50:06 PM 51.9000 -127.0500 180° South 300 345 23,000  Level Vancouver Center
Wed 02:51:06 PM 51.8167 -127.0167 166° South 300 345 23,000  Level Vancouver Center
Wed 02:52:06 PM 51.7333 -126.9833 166° South 300 345 23,000  Level Vancouver Center
Wed 02:53:06 PM 51.6500 -126.9667 173° South 300 345 23,000  Level Vancouver Center
Wed 02:54:06 PM 51.5667 -126.9333 166° South 300 345 23,000  Level Vancouver Center
Wed 02:55:06 PM 51.4833 -126.9167 173° South 300 345 23,000  Level Vancouver Center
Wed 02:56:06 PM 51.4167 -126.8000 132° Southeast 320 368 23,000  Level Vancouver Center
Wed 02:57:06 PM 51.3667 -126.6833 124° Southeast 320 368 23,000  Level Vancouver Center
Wed 02:58:06 PM 51.3167 -126.5833 129° Southeast 320 368 23,000  Level Vancouver Center
Wed 02:59:06 PM 51.2500 -126.4667 132° Southeast 320 368 23,000  Level Vancouver Center
Wed 03:00:06 PM 51.2000 -126.3500 124° Southeast 320 368 23,000  Level Vancouver Center
Wed 03:01:06 PM 51.1333 -126.2500 137° Southeast 320 368 23,000  Level Vancouver Center
Wed 03:02:06 PM 51.0833 -126.1333 124° Southeast 320 368 23,000  Level Vancouver Center
Wed 03:03:06 PM 51.0167 -126.0333 137° Southeast 320 368 23,000  Level Vancouver Center
Wed 03:04:06 PM 50.9667 -125.9167 124° Southeast 320 368 23,000  Level Vancouver Center
Wed 03:05:06 PM 50.9167 -125.8167 128° Southeast 320 368 23,000  Level Vancouver Center
Wed 03:06:06 PM 50.8667 -125.7000 124° Southeast 320 368 23,000  Level Vancouver Center
Wed 03:07:06 PM 50.8000 -125.5667 128° Southeast 320 368 23,000  Level Vancouver Center
Wed 03:08:06 PM 50.7500 -125.4833 133° Southeast 320 368 23,000  Level Vancouver Center
Wed 03:09:06 PM 50.6833 -125.3500 128° Southeast 320 368 23,000  Level Vancouver Center
Wed 03:10:06 PM 50.6333 -125.2500 128° Southeast 320 368 23,000  Level Vancouver Center
Wed 03:11:06 PM 50.5667 -125.1333 132° Southeast 320 368 23,000  Level Vancouver Center
Wed 03:12:06 PM 50.5167 -125.0333 128° Southeast 320 368 23,000  Level Vancouver Center
Wed 03:13:06 PM 50.4500 -124.9333 136° Southeast 320 368 23,000  Level Vancouver Center
Wed 03:14:06 PM 50.4000 -124.8167 124° Southeast 320 368 23,000  Level Vancouver Center
Wed 03:15:06 PM 50.3333 -124.7167 136° Southeast 320 368 23,000  Level Vancouver Center
Wed 03:16:06 PM 50.2833 -124.6167 128° Southeast 330 380 23,000  Level Vancouver Center
Wed 03:17:06 PM 50.2167 -124.5000 132° Southeast 320 368 23,000  Level Vancouver Center
Wed 03:18:06 PM 50.1500 -124.4000 136° Southeast 330 380 23,000 -600 Level Vancouver Center
Wed 03:19:06 PM 50.1000 -124.2667 120° Southeast 330 380 21,800 -1,550 Descending Vancouver Center
Wed 03:20:06 PM 50.0333 -124.1667 136° Southeast 360 414 19,900 -1,900 Descending Vancouver Center
Wed 03:21:06 PM 49.9667 -124.0667 136° Southeast 360 414 18,000 -1,700 Descending Vancouver Center
Wed 03:22:06 PM 49.9000 -123.9333 128° Southeast 360 414 16,500 -1,650 Descending Vancouver Center
Wed 03:23:06 PM 49.8500 -123.8167 124° Southeast 320 368 14,700 -1,750 Descending Vancouver Center
Wed 03:24:06 PM 49.7833 -123.7167 136° Southeast 300 345 13,000 -1,650 Descending Vancouver Center
Wed 03:25:06 PM 49.7167 -123.6667 154° Southeast 280 322 11,400 -1,500 Descending Vancouver Center
Wed 03:26:06 PM 49.6500 -123.6167 154° Southeast 300 345 10,000 -700 Descending Vancouver Center
Wed 03:27:06 PM 49.5833 -123.5667 154° Southeast 280 322 10,000  Level Vancouver Center
Wed 03:28:06 PM 49.5167 -123.5167 154° Southeast 280 322 10,000  Level Vancouver Center
Wed 03:29:06 PM 49.4500 -123.4667 154° Southeast 270 311 10,000  Level Vancouver Center
Wed 03:30:06 PM 49.3833 -123.4167 154° Southeast 270 311 10,000  Level Vancouver Center
Wed 03:31:06 PM 49.3167 -123.3333 141° Southeast 270 311 10,000 -100 Level Vancouver Center
Wed 03:32:06 PM 49.2500 -123.2833 154° Southeast 270 311 9,800 -700 Descending Vancouver Center
Wed 03:33:06 PM 49.2500 -123.1667 90° East 270 311 8,600 -1,650 Descending Vancouver Center
Wed 03:34:06 PM 49.2333 -123.0500 102° East 250 288 6,500 -2,050 Descending Vancouver Center
Wed 03:35:06 PM 49.2333 -122.9500 90° East 230 265 4,500 -1,750 Descending Vancouver Center
Wed 03:36:06 PM 49.2000 -122.9000 136° Southeast 210 242 3,000 -850 Descending Vancouver Center
Wed 03:37:06 PM 49.1667 -122.9500 224° Southwest 200 230 2,800 -600 Descending Vancouver Center
Wed 03:38:06 PM 49.1667 -123.0333 270° West 200 230 1,800 -850 Descending Vancouver Center
Wed 03:39:06 PM 49.1667 -123.1167 270° West 160 184 1,100 -700 Descending Vancouver Center

Login

Don't have an account? Register now (free) for customized features, flight alerts, and more!